sensor_id;sensor_type;location;lat;lon;timestamp;temperature;humidity
35445;DHT22;21562;49.476;6.086;2023-02-01T00:00:33;5.90;99.90
35445;DHT22;21562;49.476;6.086;2023-02-01T00:03:00;5.90;99.90
35445;DHT22;21562;49.476;6.086;2023-02-01T00:05:25;6.00;99.90
35445;DHT22;21562;49.476;6.086;2023-02-01T00:07:51;5.90;99.90
35445;DHT22;21562;49.476;6.086;2023-02-01T00:10:17;5.90;99.90
35445;DHT22;21562;49.476;6.086;2023-02-01T00:12:43;5.90;99.90
35445;DHT22;21562;49.476;6.086;2023-02-01T00:15:09;5.90;99.90
35445;DHT22;21562;49.476;6.086;2023-02-01T00:17:35;6.00;99.90
35445;DHT22;21562;49.476;6.086;2023-02-01T00:20:01;6.00;99.90
35445;DHT22;21562;49.476;6.086;2023-02-01T00:22:27;6.20;99.90
35445;DHT22;21562;49.476;6.086;2023-02-01T00:24:53;6.10;99.90
35445;DHT22;21562;49.476;6.086;2023-02-01T00:27:18;6.10;99.90
35445;DHT22;21562;49.476;6.086;2023-02-01T00:29:46;6.00;99.90
35445;DHT22;21562;49.476;6.086;2023-02-01T00:32:12;6.10;99.90
35445;DHT22;21562;49.476;6.086;2023-02-01T00:34:38;6.10;99.90
35445;DHT22;21562;49.476;6.086;2023-02-01T00:37:04;6.10;99.90
35445;DHT22;21562;49.476;6.086;2023-02-01T00:39:29;6.10;99.90
35445;DHT22;21562;49.476;6.086;2023-02-01T00:41:55;6.10;99.90
35445;DHT22;21562;49.476;6.086;2023-02-01T00:44:20;6.10;99.90
35445;DHT22;21562;49.476;6.086;2023-02-01T00:46:46;6.10;99.90
35445;DHT22;21562;49.476;6.086;2023-02-01T00:49:13;6.10;99.90
35445;DHT22;21562;49.476;6.086;2023-02-01T00:51:39;6.10;99.90
35445;DHT22;21562;49.476;6.086;2023-02-01T00:54:04;6.10;99.90
35445;DHT22;21562;49.476;6.086;2023-02-01T00:56:30;6.10;99.90
35445;DHT22;21562;49.476;6.086;2023-02-01T00:58:56;6.20;99.90
35445;DHT22;21562;49.476;6.086;2023-02-01T01:01:25;6.20;99.90
35445;DHT22;21562;49.476;6.086;2023-02-01T01:03:56;6.20;99.90
35445;DHT22;21562;49.476;6.086;2023-02-01T01:06:33;6.20;99.90
35445;DHT22;21562;49.476;6.086;2023-02-01T01:09:01;6.20;99.90
35445;DHT22;21562;49.476;6.086;2023-02-01T01:11:32;6.20;99.90
35445;DHT22;21562;49.476;6.086;2023-02-01T01:13:59;6.10;99.90
35445;DHT22;21562;49.476;6.086;2023-02-01T01:16:28;6.20;99.90
35445;DHT22;21562;49.476;6.086;2023-02-01T01:18:55;6.30;99.90
35445;DHT22;21562;49.476;6.086;2023-02-01T01:21:21;6.30;99.90
35445;DHT22;21562;49.476;6.086;2023-02-01T01:23:47;6.30;99.90
35445;DHT22;21562;49.476;6.086;2023-02-01T01:26:19;6.30;99.90
35445;DHT22;21562;49.476;6.086;2023-02-01T01:28:45;6.30;99.90
35445;DHT22;21562;49.476;6.086;2023-02-01T01:31:12;6.40;99.90
35445;DHT22;21562;49.476;6.086;2023-02-01T01:33:38;6.40;99.90
35445;DHT22;21562;49.476;6.086;2023-02-01T01:36:05;6.40;99.90
35445;DHT22;21562;49.476;6.086;2023-02-01T01:38:31;6.50;99.90
35445;DHT22;21562;49.476;6.086;2023-02-01T01:40:57;6.50;99.90
35445;DHT22;21562;49.476;6.086;2023-02-01T01:43:23;6.40;99.90
35445;DHT22;21562;49.476;6.086;2023-02-01T01:45:49;6.40;99.90
35445;DHT22;21562;49.476;6.086;2023-02-01T01:48:27;6.40;99.90
35445;DHT22;21562;49.476;6.086;2023-02-01T01:51:05;6.50;99.90
35445;DHT22;21562;49.476;6.086;2023-02-01T01:53:38;6.60;99.90
35445;DHT22;21562;49.476;6.086;2023-02-01T01:56:06;6.50;99.90
35445;DHT22;21562;49.476;6.086;2023-02-01T01:58:33;6.40;99.90
35445;DHT22;21562;49.476;6.086;2023-02-01T02:00:59;6.60;99.90
35445;DHT22;21562;49.476;6.086;2023-02-01T02:03:31;6.70;99.90
35445;DHT22;21562;49.476;6.086;2023-02-01T02:06:01;6.70;99.90
35445;DHT22;21562;49.476;6.086;2023-02-01T02:08:27;6.80;99.90
35445;DHT22;21562;49.476;6.086;2023-02-01T02:10:53;6.70;99.90
35445;DHT22;21562;49.476;6.086;2023-02-01T02:13:31;6.80;99.90
35445;DHT22;21562;49.476;6.086;2023-02-01T02:19:04;6.70;99.90
35445;DHT22;21562;49.476;6.086;2023-02-01T02:24:34;6.70;99.90
35445;DHT22;21562;49.476;6.086;2023-02-01T02:27:21;6.60;99.90
35445;DHT22;21562;49.476;6.086;2023-02-01T02:30:26;6.70;99.90
35445;DHT22;21562;49.476;6.086;2023-02-01T02:33:22;6.80;99.90
35445;DHT22;21562;49.476;6.086;2023-02-01T02:39:13;6.70;99.90
35445;DHT22;21562;49.476;6.086;2023-02-01T02:50:34;6.60;99.90
35445;DHT22;21562;49.476;6.086;2023-02-01T02:53:46;6.50;99.90
35445;DHT22;21562;49.476;6.086;2023-02-01T02:56:26;6.60;99.90
35445;DHT22;21562;49.476;6.086;2023-02-01T02:59:14;6.70;99.90
35445;DHT22;21562;49.476;6.086;2023-02-01T03:01:59;6.60;99.90
35445;DHT22;21562;49.476;6.086;2023-02-01T03:04:43;6.60;99.90
35445;DHT22;21562;49.476;6.086;2023-02-01T03:07:59;6.70;99.90
35445;DHT22;21562;49.476;6.086;2023-02-01T03:13:47;6.70;99.90
35445;DHT22;21562;49.476;6.086;2023-02-01T03:16:24;6.80;99.90
35445;DHT22;21562;49.476;6.086;2023-02-01T03:24:39;6.80;99.90
35445;DHT22;21562;49.476;6.086;2023-02-01T03:27:40;6.90;99.90
35445;DHT22;21562;49.476;6.086;2023-02-01T03:30:27;6.80;99.90
35445;DHT22;21562;49.476;6.086;2023-02-01T03:32:56;6.90;99.90
35445;DHT22;21562;49.476;6.086;2023-02-01T03:38:22;6.80;99.90
35445;DHT22;21562;49.476;6.086;2023-02-01T03:41:15;6.70;99.90
35445;DHT22;21562;49.476;6.086;2023-02-01T03:43:54;6.80;99.90
35445;DHT22;21562;49.476;6.086;2023-02-01T03:46:28;6.80;99.90
35445;DHT22;21562;49.476;6.086;2023-02-01T03:49:00;6.80;99.90
35445;DHT22;21562;49.476;6.086;2023-02-01T03:51:26;6.80;99.90
35445;DHT22;21562;49.476;6.086;2023-02-01T03:53:53;6.80;99.90
35445;DHT22;21562;49.476;6.086;2023-02-01T03:56:22;6.90;99.90
35445;DHT22;21562;49.476;6.086;2023-02-01T03:58:51;7.00;99.90
35445;DHT22;21562;49.476;6.086;2023-02-01T04:01:27;7.10;99.90
35445;DHT22;21562;49.476;6.086;2023-02-01T04:03:52;7.10;99.90
35445;DHT22;21562;49.476;6.086;2023-02-01T04:06:18;7.10;99.90
35445;DHT22;21562;49.476;6.086;2023-02-01T04:08:44;7.00;99.90
35445;DHT22;21562;49.476;6.086;2023-02-01T04:11:09;6.90;99.90
35445;DHT22;21562;49.476;6.086;2023-02-01T04:13:35;6.80;99.90
35445;DHT22;21562;49.476;6.086;2023-02-01T04:16:01;6.80;99.90
35445;DHT22;21562;49.476;6.086;2023-02-01T04:18:26;6.80;99.90
35445;DHT22;21562;49.476;6.086;2023-02-01T04:20:52;6.90;99.90
35445;DHT22;21562;49.476;6.086;2023-02-01T04:23:17;6.90;99.90
35445;DHT22;21562;49.476;6.086;2023-02-01T04:25:43;6.90;99.90
35445;DHT22;21562;49.476;6.086;2023-02-01T04:28:09;6.90;99.90
35445;DHT22;21562;49.476;6.086;2023-02-01T04:30:34;6.90;99.90
35445;DHT22;21562;49.476;6.086;2023-02-01T04:33:00;7.00;99.90
35445;DHT22;21562;49.476;6.086;2023-02-01T04:35:25;7.00;99.90
35445;DHT22;21562;49.476;6.086;2023-02-01T04:37:51;7.00;99.90
35445;DHT22;21562;49.476;6.086;2023-02-01T04:40:17;6.70;99.90
35445;DHT22;21562;49.476;6.086;2023-02-01T04:42:42;6.70;99.90
35445;DHT22;21562;49.476;6.086;2023-02-01T04:45:08;6.70;99.90
35445;DHT22;21562;49.476;6.086;2023-02-01T04:47:34;6.80;99.90
35445;DHT22;21562;49.476;6.086;2023-02-01T04:50:00;6.80;99.90
35445;DHT22;21562;49.476;6.086;2023-02-01T04:52:25;6.80;99.90
35445;DHT22;21562;49.476;6.086;2023-02-01T04:54:52;6.80;99.90
35445;DHT22;21562;49.476;6.086;2023-02-01T04:57:19;7.00;99.90
35445;DHT22;21562;49.476;6.086;2023-02-01T04:59:45;6.90;99.90
35445;DHT22;21562;49.476;6.086;2023-02-01T05:02:11;7.20;99.90
35445;DHT22;21562;49.476;6.086;2023-02-01T05:04:36;7.10;99.90
35445;DHT22;21562;49.476;6.086;2023-02-01T05:07:02;7.00;99.90
35445;DHT22;21562;49.476;6.086;2023-02-01T05:09:27;7.00;99.90
35445;DHT22;21562;49.476;6.086;2023-02-01T05:11:53;7.00;99.90
35445;DHT22;21562;49.476;6.086;2023-02-01T05:14:37;7.00;99.90
35445;DHT22;21562;49.476;6.086;2023-02-01T05:17:03;7.00;99.90
35445;DHT22;21562;49.476;6.086;2023-02-01T05:19:29;6.80;99.90
35445;DHT22;21562;49.476;6.086;2023-02-01T05:21:54;6.70;99.90
35445;DHT22;21562;49.476;6.086;2023-02-01T05:24:20;6.80;99.90
35445;DHT22;21562;49.476;6.086;2023-02-01T05:26:46;7.00;99.90
35445;DHT22;21562;49.476;6.086;2023-02-01T05:29:13;7.10;99.90
35445;DHT22;21562;49.476;6.086;2023-02-01T05:31:39;7.00;99.90
35445;DHT22;21562;49.476;6.086;2023-02-01T05:34:05;6.80;99.90
35445;DHT22;21562;49.476;6.086;2023-02-01T05:36:31;6.70;99.90
35445;DHT22;21562;49.476;6.086;2023-02-01T05:38:56;6.60;99.90
35445;DHT22;21562;49.476;6.086;2023-02-01T05:41:22;6.60;99.90
35445;DHT22;21562;49.476;6.086;2023-02-01T05:43:48;6.70;99.90
35445;DHT22;21562;49.476;6.086;2023-02-01T05:46:13;6.70;99.90
35445;DHT22;21562;49.476;6.086;2023-02-01T05:48:40;6.70;99.90
35445;DHT22;21562;49.476;6.086;2023-02-01T05:51:06;6.70;99.90
35445;DHT22;21562;49.476;6.086;2023-02-01T05:53:32;6.70;99.90
35445;DHT22;21562;49.476;6.086;2023-02-01T05:55:57;6.90;99.90
35445;DHT22;21562;49.476;6.086;2023-02-01T05:58:23;6.80;99.90
35445;DHT22;21562;49.476;6.086;2023-02-01T06:00:49;6.70;99.90
35445;DHT22;21562;49.476;6.086;2023-02-01T06:03:14;6.70;99.90
35445;DHT22;21562;49.476;6.086;2023-02-01T06:05:40;6.70;99.90
35445;DHT22;21562;49.476;6.086;2023-02-01T06:08:06;6.60;99.90
35445;DHT22;21562;49.476;6.086;2023-02-01T06:10:33;6.60;99.90
35445;DHT22;21562;49.476;6.086;2023-02-01T06:12:58;6.70;99.90
35445;DHT22;21562;49.476;6.086;2023-02-01T06:15:24;6.80;99.90
35445;DHT22;21562;49.476;6.086;2023-02-01T06:17:49;6.90;99.90
35445;DHT22;21562;49.476;6.086;2023-02-01T06:20:16;6.90;99.90
35445;DHT22;21562;49.476;6.086;2023-02-01T06:22:42;6.90;99.90
35445;DHT22;21562;49.476;6.086;2023-02-01T06:25:09;7.00;99.90
35445;DHT22;21562;49.476;6.086;2023-02-01T06:27:35;6.90;99.90
35445;DHT22;21562;49.476;6.086;2023-02-01T06:30:02;6.90;99.90
35445;DHT22;21562;49.476;6.086;2023-02-01T06:32:28;6.80;99.90
35445;DHT22;21562;49.476;6.086;2023-02-01T06:34:53;6.80;99.90
35445;DHT22;21562;49.476;6.086;2023-02-01T06:37:20;6.80;99.90
35445;DHT22;21562;49.476;6.086;2023-02-01T06:39:46;6.90;99.90
35445;DHT22;21562;49.476;6.086;2023-02-01T06:42:12;6.80;99.90
35445;DHT22;21562;49.476;6.086;2023-02-01T06:44:37;6.60;99.90
35445;DHT22;21562;49.476;6.086;2023-02-01T06:47:03;6.60;99.90
35445;DHT22;21562;49.476;6.086;2023-02-01T06:49:32;6.60;99.90
35445;DHT22;21562;49.476;6.086;2023-02-01T06:51:57;6.50;99.90
35445;DHT22;21562;49.476;6.086;2023-02-01T06:54:28;6.50;99.90
35445;DHT22;21562;49.476;6.086;2023-02-01T06:56:53;6.40;99.90
35445;DHT22;21562;49.476;6.086;2023-02-01T06:59:19;6.20;99.90
35445;DHT22;21562;49.476;6.086;2023-02-01T07:01:45;6.30;99.90
35445;DHT22;21562;49.476;6.086;2023-02-01T07:04:13;6.30;99.90
35445;DHT22;21562;49.476;6.086;2023-02-01T07:06:39;6.40;99.90
35445;DHT22;21562;49.476;6.086;2023-02-01T07:09:05;6.30;99.90
35445;DHT22;21562;49.476;6.086;2023-02-01T07:11:31;6.30;99.90
35445;DHT22;21562;49.476;6.086;2023-02-01T07:13:57;6.30;99.90
35445;DHT22;21562;49.476;6.086;2023-02-01T07:16:23;6.20;99.90
35445;DHT22;21562;49.476;6.086;2023-02-01T07:18:50;6.30;99.90
35445;DHT22;21562;49.476;6.086;2023-02-01T07:21:16;6.20;99.90
35445;DHT22;21562;49.476;6.086;2023-02-01T07:23:42;6.00;99.90
35445;DHT22;21562;49.476;6.086;2023-02-01T07:26:11;5.90;99.90
35445;DHT22;21562;49.476;6.086;2023-02-01T07:28:38;5.80;99.90
35445;DHT22;21562;49.476;6.086;2023-02-01T07:31:15;6.00;99.90
35445;DHT22;21562;49.476;6.086;2023-02-01T07:33:41;5.90;99.90
35445;DHT22;21562;49.476;6.086;2023-02-01T07:36:10;5.90;99.90
35445;DHT22;21562;49.476;6.086;2023-02-01T07:38:36;6.00;99.90
35445;DHT22;21562;49.476;6.086;2023-02-01T07:41:04;5.90;99.90
35445;DHT22;21562;49.476;6.086;2023-02-01T07:43:30;6.00;99.90
35445;DHT22;21562;49.476;6.086;2023-02-01T07:45:56;6.00;99.90
35445;DHT22;21562;49.476;6.086;2023-02-01T07:48:23;6.00;99.90
35445;DHT22;21562;49.476;6.086;2023-02-01T07:51:00;6.10;99.90
35445;DHT22;21562;49.476;6.086;2023-02-01T07:53:28;6.10;99.90
35445;DHT22;21562;49.476;6.086;2023-02-01T07:55:53;6.00;99.90
35445;DHT22;21562;49.476;6.086;2023-02-01T07:58:21;5.90;99.90
35445;DHT22;21562;49.476;6.086;2023-02-01T08:00:47;5.80;99.90
35445;DHT22;21562;49.476;6.086;2023-02-01T08:03:31;5.80;99.90
35445;DHT22;21562;49.476;6.086;2023-02-01T08:05:57;5.70;99.90
35445;DHT22;21562;49.476;6.086;2023-02-01T08:08:23;5.80;99.90
35445;DHT22;21562;49.476;6.086;2023-02-01T08:10:48;6.00;99.90
35445;DHT22;21562;49.476;6.086;2023-02-01T08:13:14;5.90;99.90
35445;DHT22;21562;49.476;6.086;2023-02-01T08:15:40;6.00;99.90
35445;DHT22;21562;49.476;6.086;2023-02-01T08:18:06;5.90;99.90
35445;DHT22;21562;49.476;6.086;2023-02-01T08:20:31;6.00;99.90
35445;DHT22;21562;49.476;6.086;2023-02-01T08:22:59;6.00;99.90
35445;DHT22;21562;49.476;6.086;2023-02-01T08:25:25;5.90;99.90
35445;DHT22;21562;49.476;6.086;2023-02-01T08:27:51;5.90;99.90
35445;DHT22;21562;49.476;6.086;2023-02-01T08:30:17;5.90;99.90
35445;DHT22;21562;49.476;6.086;2023-02-01T08:32:43;5.90;99.90
35445;DHT22;21562;49.476;6.086;2023-02-01T08:35:09;5.90;99.90
35445;DHT22;21562;49.476;6.086;2023-02-01T08:37:34;6.00;99.90
35445;DHT22;21562;49.476;6.086;2023-02-01T08:40:00;6.00;99.90
35445;DHT22;21562;49.476;6.086;2023-02-01T08:42:26;6.00;99.90
35445;DHT22;21562;49.476;6.086;2023-02-01T08:45:10;6.10;99.90
35445;DHT22;21562;49.476;6.086;2023-02-01T08:47:36;5.90;99.90
35445;DHT22;21562;49.476;6.086;2023-02-01T08:50:02;6.00;99.90
35445;DHT22;21562;49.476;6.086;2023-02-01T08:52:27;6.10;99.90
35445;DHT22;21562;49.476;6.086;2023-02-01T08:54:53;6.20;99.90
35445;DHT22;21562;49.476;6.086;2023-02-01T08:57:19;6.30;99.90
35445;DHT22;21562;49.476;6.086;2023-02-01T08:59:44;5.90;99.90
35445;DHT22;21562;49.476;6.086;2023-02-01T09:02:14;5.90;99.90
35445;DHT22;21562;49.476;6.086;2023-02-01T09:04:41;5.80;99.90
35445;DHT22;21562;49.476;6.086;2023-02-01T09:07:07;5.80;99.90
35445;DHT22;21562;49.476;6.086;2023-02-01T09:09:33;5.90;99.90
35445;DHT22;21562;49.476;6.086;2023-02-01T09:11:59;5.90;99.90
35445;DHT22;21562;49.476;6.086;2023-02-01T09:14:25;6.10;99.90
35445;DHT22;21562;49.476;6.086;2023-02-01T09:16:50;6.10;99.90
35445;DHT22;21562;49.476;6.086;2023-02-01T09:19:16;6.10;99.90
35445;DHT22;21562;49.476;6.086;2023-02-01T09:21:42;6.10;99.90
35445;DHT22;21562;49.476;6.086;2023-02-01T09:24:10;6.10;99.90
35445;DHT22;21562;49.476;6.086;2023-02-01T09:26:36;6.10;99.90
35445;DHT22;21562;49.476;6.086;2023-02-01T09:29:03;6.10;99.90
35445;DHT22;21562;49.476;6.086;2023-02-01T09:31:29;6.30;99.90
35445;DHT22;21562;49.476;6.086;2023-02-01T09:33:55;6.10;99.90
35445;DHT22;21562;49.476;6.086;2023-02-01T09:36:21;6.20;99.90
35445;DHT22;21562;49.476;6.086;2023-02-01T09:38:47;6.40;99.90
35445;DHT22;21562;49.476;6.086;2023-02-01T09:41:35;6.30;99.90
35445;DHT22;21562;49.476;6.086;2023-02-01T09:47:04;6.20;99.90
35445;DHT22;21562;49.476;6.086;2023-02-01T09:49:38;6.20;99.90
35445;DHT22;21562;49.476;6.086;2023-02-01T09:52:10;6.20;99.90
35445;DHT22;21562;49.476;6.086;2023-02-01T09:54:49;6.30;99.90
35445;DHT22;21562;49.476;6.086;2023-02-01T09:57:22;6.10;99.90
35445;DHT22;21562;49.476;6.086;2023-02-01T09:59:54;6.00;99.90
35445;DHT22;21562;49.476;6.086;2023-02-01T10:02:24;6.10;99.90
35445;DHT22;21562;49.476;6.086;2023-02-01T10:04:54;6.20;99.90
35445;DHT22;21562;49.476;6.086;2023-02-01T10:07:38;6.30;99.90
35445;DHT22;21562;49.476;6.086;2023-02-01T10:10:15;6.30;99.90
35445;DHT22;21562;49.476;6.086;2023-02-01T10:13:38;6.10;99.90
35445;DHT22;21562;49.476;6.086;2023-02-01T10:16:30;6.10;99.90
35445;DHT22;21562;49.476;6.086;2023-02-01T10:19:15;6.10;99.90
35445;DHT22;21562;49.476;6.086;2023-02-01T10:22:10;6.30;99.90
35445;DHT22;21562;49.476;6.086;2023-02-01T10:24:47;6.20;99.90
35445;DHT22;21562;49.476;6.086;2023-02-01T10:27:21;6.10;99.90
35445;DHT22;21562;49.476;6.086;2023-02-01T10:29:54;6.10;99.90
35445;DHT22;21562;49.476;6.086;2023-02-01T10:32:23;6.10;99.90
35445;DHT22;21562;49.476;6.086;2023-02-01T10:34:58;6.30;99.90
35445;DHT22;21562;49.476;6.086;2023-02-01T10:37:30;6.50;99.90
35445;DHT22;21562;49.476;6.086;2023-02-01T10:40:00;6.50;99.90
35445;DHT22;21562;49.476;6.086;2023-02-01T10:42:28;6.60;99.90
35445;DHT22;21562;49.476;6.086;2023-02-01T10:44:57;6.60;99.90
35445;DHT22;21562;49.476;6.086;2023-02-01T10:47:24;6.60;99.90
35445;DHT22;21562;49.476;6.086;2023-02-01T10:49:52;6.70;99.90
35445;DHT22;21562;49.476;6.086;2023-02-01T10:54:53;6.70;99.90
35445;DHT22;21562;49.476;6.086;2023-02-01T10:57:26;6.70;99.90
35445;DHT22;21562;49.476;6.086;2023-02-01T10:59:53;6.60;99.90
35445;DHT22;21562;49.476;6.086;2023-02-01T11:02:31;6.50;99.90
35445;DHT22;21562;49.476;6.086;2023-02-01T11:05:09;6.50;99.90
35445;DHT22;21562;49.476;6.086;2023-02-01T11:07:39;6.70;99.90
35445;DHT22;21562;49.476;6.086;2023-02-01T11:10:05;6.30;99.90
35445;DHT22;21562;49.476;6.086;2023-02-01T11:12:34;6.20;99.90
35445;DHT22;21562;49.476;6.086;2023-02-01T11:17:33;6.30;99.90
35445;DHT22;21562;49.476;6.086;2023-02-01T11:20:01;6.30;99.90
35445;DHT22;21562;49.476;6.086;2023-02-01T11:22:27;6.30;99.90
35445;DHT22;21562;49.476;6.086;2023-02-01T11:24:55;6.30;99.90
35445;DHT22;21562;49.476;6.086;2023-02-01T11:27:22;6.40;99.90
35445;DHT22;21562;49.476;6.086;2023-02-01T11:29:54;6.50;99.90
35445;DHT22;21562;49.476;6.086;2023-02-01T11:32:22;6.50;99.90
35445;DHT22;21562;49.476;6.086;2023-02-01T11:34:55;6.50;99.90
35445;DHT22;21562;49.476;6.086;2023-02-01T11:37:35;6.40;99.90
35445;DHT22;21562;49.476;6.086;2023-02-01T11:42:56;6.40;99.90
35445;DHT22;21562;49.476;6.086;2023-02-01T11:45:28;6.30;99.90
35445;DHT22;21562;49.476;6.086;2023-02-01T11:47:56;6.40;99.90
35445;DHT22;21562;49.476;6.086;2023-02-01T12:06:51;6.70;99.90
35445;DHT22;21562;49.476;6.086;2023-02-01T12:15:20;6.60;99.90
35445;DHT22;21562;49.476;6.086;2023-02-01T12:34:07;6.90;99.90
35445;DHT22;21562;49.476;6.086;2023-02-01T12:42:31;6.80;99.90
35445;DHT22;21562;49.476;6.086;2023-02-01T12:47:44;7.30;99.90
35445;DHT22;21562;49.476;6.086;2023-02-01T12:52:55;7.10;99.90
35445;DHT22;21562;49.476;6.086;2023-02-01T12:55:35;7.30;99.90
35445;DHT22;21562;49.476;6.086;2023-02-01T12:59:12;7.20;99.90
35445;DHT22;21562;49.476;6.086;2023-02-01T13:01:09;7.20;99.90
35445;DHT22;21562;49.476;6.086;2023-02-01T13:03:54;7.50;99.90
35445;DHT22;21562;49.476;6.086;2023-02-01T13:06:35;7.70;99.90
35445;DHT22;21562;49.476;6.086;2023-02-01T13:11:44;7.50;99.90
35445;DHT22;21562;49.476;6.086;2023-02-01T13:14:25;7.60;99.90
35445;DHT22;21562;49.476;6.086;2023-02-01T13:16:59;7.60;99.90
35445;DHT22;21562;49.476;6.086;2023-02-01T13:22:00;7.60;99.90
35445;DHT22;21562;49.476;6.086;2023-02-01T13:26:56;7.60;99.90
35445;DHT22;21562;49.476;6.086;2023-02-01T13:29:23;7.80;99.90
35445;DHT22;21562;49.476;6.086;2023-02-01T13:32:07;8.00;99.90
35445;DHT22;21562;49.476;6.086;2023-02-01T13:34:59;8.30;99.90
35445;DHT22;21562;49.476;6.086;2023-02-01T13:40:54;8.50;99.90
35445;DHT22;21562;49.476;6.086;2023-02-01T13:43:26;8.60;99.90
35445;DHT22;21562;49.476;6.086;2023-02-01T13:46:02;8.60;99.90
35445;DHT22;21562;49.476;6.086;2023-02-01T13:48:51;8.60;99.90
35445;DHT22;21562;49.476;6.086;2023-02-01T13:51:50;8.40;99.90
35445;DHT22;21562;49.476;6.086;2023-02-01T13:56:49;8.70;99.90
35445;DHT22;21562;49.476;6.086;2023-02-01T14:13:37;8.00;99.90
35445;DHT22;21562;49.476;6.086;2023-02-01T14:26:21;8.10;99.90
35445;DHT22;21562;49.476;6.086;2023-02-01T14:31:31;8.20;99.90
35445;DHT22;21562;49.476;6.086;2023-02-01T14:33:59;8.00;99.90
35445;DHT22;21562;49.476;6.086;2023-02-01T14:36:26;7.90;99.90
35445;DHT22;21562;49.476;6.086;2023-02-01T14:39:04;8.00;99.90
35445;DHT22;21562;49.476;6.086;2023-02-01T14:41:32;7.70;99.90
35445;DHT22;21562;49.476;6.086;2023-02-01T14:47:05;7.70;99.90
35445;DHT22;21562;49.476;6.086;2023-02-01T14:49:32;7.60;99.90
35445;DHT22;21562;49.476;6.086;2023-02-01T14:51:59;7.50;99.90
35445;DHT22;21562;49.476;6.086;2023-02-01T14:54:27;7.60;99.90
35445;DHT22;21562;49.476;6.086;2023-02-01T14:56:54;7.50;99.90
35445;DHT22;21562;49.476;6.086;2023-02-01T14:59:22;7.50;99.90
35445;DHT22;21562;49.476;6.086;2023-02-01T15:01:57;7.50;99.90
35445;DHT22;21562;49.476;6.086;2023-02-01T15:04:25;7.50;99.90
35445;DHT22;21562;49.476;6.086;2023-02-01T15:07:05;7.70;99.90
35445;DHT22;21562;49.476;6.086;2023-02-01T15:09:36;7.50;99.90
35445;DHT22;21562;49.476;6.086;2023-02-01T15:17:37;7.70;99.90
35445;DHT22;21562;49.476;6.086;2023-02-01T15:22:37;7.50;99.90
35445;DHT22;21562;49.476;6.086;2023-02-01T15:25:03;7.40;99.90
35445;DHT22;21562;49.476;6.086;2023-02-01T15:27:29;7.60;99.90
35445;DHT22;21562;49.476;6.086;2023-02-01T15:30:19;7.50;99.90
35445;DHT22;21562;49.476;6.086;2023-02-01T15:32:45;7.50;99.90
35445;DHT22;21562;49.476;6.086;2023-02-01T15:35:40;7.30;99.90
35445;DHT22;21562;49.476;6.086;2023-02-01T15:38:41;7.40;99.90
35445;DHT22;21562;49.476;6.086;2023-02-01T15:41:23;7.40;99.90
35445;DHT22;21562;49.476;6.086;2023-02-01T15:46:23;7.40;99.90
35445;DHT22;21562;49.476;6.086;2023-02-01T15:48:52;7.40;99.90
35445;DHT22;21562;49.476;6.086;2023-02-01T15:51:21;7.60;99.90
35445;DHT22;21562;49.476;6.086;2023-02-01T15:53:54;7.50;99.90
35445;DHT22;21562;49.476;6.086;2023-02-01T15:56:26;7.50;99.90
35445;DHT22;21562;49.476;6.086;2023-02-01T15:58:56;7.50;99.90
35445;DHT22;21562;49.476;6.086;2023-02-01T16:01:23;7.50;99.90
35445;DHT22;21562;49.476;6.086;2023-02-01T16:03:54;7.40;99.90
35445;DHT22;21562;49.476;6.086;2023-02-01T16:06:29;7.30;99.90
35445;DHT22;21562;49.476;6.086;2023-02-01T16:09:02;7.40;99.90
35445;DHT22;21562;49.476;6.086;2023-02-01T16:11:41;7.40;99.90
35445;DHT22;21562;49.476;6.086;2023-02-01T16:14:07;7.20;99.90
35445;DHT22;21562;49.476;6.086;2023-02-01T16:16:32;7.30;99.90
35445;DHT22;21562;49.476;6.086;2023-02-01T16:18:58;7.40;99.90
35445;DHT22;21562;49.476;6.086;2023-02-01T16:21:23;7.40;99.90
35445;DHT22;21562;49.476;6.086;2023-02-01T16:23:50;7.40;99.90
35445;DHT22;21562;49.476;6.086;2023-02-01T16:26:16;7.50;99.90
35445;DHT22;21562;49.476;6.086;2023-02-01T16:28:42;7.30;99.90
35445;DHT22;21562;49.476;6.086;2023-02-01T16:31:13;7.30;99.90
35445;DHT22;21562;49.476;6.086;2023-02-01T16:33:47;7.40;99.90
35445;DHT22;21562;49.476;6.086;2023-02-01T16:36:13;7.40;99.90
35445;DHT22;21562;49.476;6.086;2023-02-01T16:38:39;7.40;99.90
35445;DHT22;21562;49.476;6.086;2023-02-01T16:41:05;7.30;99.90
35445;DHT22;21562;49.476;6.086;2023-02-01T16:43:31;7.30;99.90
35445;DHT22;21562;49.476;6.086;2023-02-01T16:46:00;7.30;99.90
35445;DHT22;21562;49.476;6.086;2023-02-01T16:48:31;7.40;99.90
35445;DHT22;21562;49.476;6.086;2023-02-01T16:51:01;7.30;99.90
35445;DHT22;21562;49.476;6.086;2023-02-01T16:53:29;7.30;99.90
35445;DHT22;21562;49.476;6.086;2023-02-01T16:55:55;7.30;99.90
35445;DHT22;21562;49.476;6.086;2023-02-01T16:58:24;7.20;99.90
35445;DHT22;21562;49.476;6.086;2023-02-01T17:00:50;7.10;99.90
35445;DHT22;21562;49.476;6.086;2023-02-01T17:03:17;7.10;99.90
35445;DHT22;21562;49.476;6.086;2023-02-01T17:05:50;7.20;99.90
35445;DHT22;21562;49.476;6.086;2023-02-01T17:08:21;7.10;99.90
35445;DHT22;21562;49.476;6.086;2023-02-01T17:10:48;7.10;99.90
35445;DHT22;21562;49.476;6.086;2023-02-01T17:13:15;7.10;99.90
35445;DHT22;21562;49.476;6.086;2023-02-01T17:15:49;7.00;99.90
35445;DHT22;21562;49.476;6.086;2023-02-01T17:18:16;7.20;99.90
35445;DHT22;21562;49.476;6.086;2023-02-01T17:20:42;7.10;99.90
35445;DHT22;21562;49.476;6.086;2023-02-01T17:23:08;7.20;99.90
35445;DHT22;21562;49.476;6.086;2023-02-01T17:25:34;7.20;99.90
35445;DHT22;21562;49.476;6.086;2023-02-01T17:27:59;7.30;99.90
35445;DHT22;21562;49.476;6.086;2023-02-01T17:30:25;7.30;99.90
35445;DHT22;21562;49.476;6.086;2023-02-01T17:32:51;7.30;99.90
35445;DHT22;21562;49.476;6.086;2023-02-01T17:35:22;7.20;99.90
35445;DHT22;21562;49.476;6.086;2023-02-01T17:37:48;7.30;99.90
35445;DHT22;21562;49.476;6.086;2023-02-01T17:40:14;7.20;99.90
35445;DHT22;21562;49.476;6.086;2023-02-01T17:42:40;7.10;99.90
35445;DHT22;21562;49.476;6.086;2023-02-01T17:45:27;7.10;99.90
35445;DHT22;21562;49.476;6.086;2023-02-01T17:47:57;7.20;99.90
35445;DHT22;21562;49.476;6.086;2023-02-01T17:50:25;7.20;99.90
35445;DHT22;21562;49.476;6.086;2023-02-01T17:52:52;7.20;99.90
35445;DHT22;21562;49.476;6.086;2023-02-01T17:55:20;7.10;99.90
35445;DHT22;21562;49.476;6.086;2023-02-01T17:57:47;7.10;99.90
35445;DHT22;21562;49.476;6.086;2023-02-01T18:00:14;7.10;99.90
35445;DHT22;21562;49.476;6.086;2023-02-01T18:02:41;7.20;99.90
35445;DHT22;21562;49.476;6.086;2023-02-01T18:05:28;7.10;99.90
35445;DHT22;21562;49.476;6.086;2023-02-01T18:07:57;7.00;99.90
35445;DHT22;21562;49.476;6.086;2023-02-01T18:10:23;7.10;99.90
35445;DHT22;21562;49.476;6.086;2023-02-01T18:12:48;7.10;99.90
35445;DHT22;21562;49.476;6.086;2023-02-01T18:15:19;7.10;99.90
35445;DHT22;21562;49.476;6.086;2023-02-01T18:17:46;7.20;99.90
35445;DHT22;21562;49.476;6.086;2023-02-01T18:20:17;7.20;99.90
35445;DHT22;21562;49.476;6.086;2023-02-01T18:22:44;7.10;99.90
35445;DHT22;21562;49.476;6.086;2023-02-01T18:25:21;7.00;99.90
35445;DHT22;21562;49.476;6.086;2023-02-01T18:27:49;7.00;99.90